Time;durP1;ratioP1;P1;durP2;ratioP2;P2;SDS_P1;SDS_P2;PMS_P1;PMS_P2;Temp;Humidity;BMP_temperature;BMP_pressure;BME280_temperature;BME280_humidity;BME280_pressure;Samples;Min_cycle;Max_cycle;Signal;HPM_P1;HPM_P2
2022/06/27 00:01:07;;;;;;;2.72;1.63;;;22.30;59.10;;;;;;4918598;29;20055;-81
2022/06/27 00:03:32;;;;;;;2.70;1.67;;;22.30;59.10;;;;;;4919284;29;20227;-80
2022/06/27 00:05:58;;;;;;;1.88;1.55;;;22.30;59.10;;;;;;4887190;29;20032;-80
2022/06/27 00:08:24;;;;;;;2.08;1.48;;;22.30;59.10;;;;;;4919598;29;20048;-81
2022/06/27 00:10:50;;;;;;;2.08;1.50;;;22.20;59.10;;;;;;4902504;29;20040;-80
2022/06/27 00:13:15;;;;;;;2.05;1.50;;;22.20;59.10;;;;;;4871752;29;20060;-80
2022/06/27 00:15:41;;;;;;;2.55;1.50;;;22.20;59.10;;;;;;4902375;29;20032;-80
2022/06/27 00:18:07;;;;;;;2.42;1.48;;;22.20;59.10;;;;;;4919947;29;20056;-80
2022/06/27 00:20:33;;;;;;;2.03;1.40;;;22.20;59.10;;;;;;4901843;29;20044;-82
2022/06/27 00:22:58;;;;;;;2.95;1.60;;;22.10;59.10;;;;;;4903097;29;20153;-80
2022/06/27 00:25:24;;;;;;;1.40;1.30;;;22.10;59.10;;;;;;4902281;29;20099;-81
2022/06/27 00:27:50;;;;;;;1.30;1.20;;;22.20;59.10;;;;;;4918255;29;20024;-81
2022/06/27 00:30:16;;;;;;;1.50;1.40;;;22.10;59.10;;;;;;4902204;29;20056;-79
2022/06/27 00:32:42;;;;;;;1.65;1.40;;;22.10;59.00;;;;;;4886500;29;20441;-81
2022/06/27 00:35:08;;;;;;;2.08;1.40;;;22.10;59.10;;;;;;4918950;29;20107;-80
2022/06/27 00:37:35;;;;;;;2.70;1.65;;;22.00;59.10;;;;;;4902113;29;20093;-80
2022/06/27 00:40:05;;;;;;;1.85;1.50;;;22.10;59.20;;;;;;4902276;29;20035;-80
2022/06/27 00:42:31;;;;;;;1.50;1.30;;;22.00;59.20;;;;;;4918248;29;20060;-79
2022/06/27 00:44:56;;;;;;;2.72;1.38;;;22.00;59.20;;;;;;4886508;29;20493;-79
2022/06/27 00:47:23;;;;;;;2.17;1.50;;;22.00;59.30;;;;;;4919550;29;20051;-80
2022/06/27 00:49:48;;;;;;;1.40;1.30;;;22.00;59.30;;;;;;4917698;29;20037;-81
2022/06/27 00:52:14;;;;;;;2.60;1.55;;;22.00;59.30;;;;;;4918163;29;20044;-80
2022/06/27 00:54:43;;;;;;;1.60;1.30;;;22.00;59.30;;;;;;4886078;29;20474;-81
2022/06/27 00:57:11;;;;;;;2.22;1.50;;;22.00;59.30;;;;;;4918473;29;20042;-80
2022/06/27 00:59:37;;;;;;;1.35;1.20;;;22.00;59.40;;;;;;4886012;29;20025;-80
2022/06/27 01:02:04;;;;;;;1.35;1.17;;;21.90;59.30;;;;;;4901610;29;20459;-80
2022/06/27 01:04:30;;;;;;;1.80;1.30;;;21.90;59.30;;;;;;4917057;29;20028;-80
2022/06/27 01:06:57;;;;;;;1.73;1.40;;;21.90;59.30;;;;;;4901777;29;20107;-80
2022/06/27 01:09:23;;;;;;;1.73;1.30;;;21.90;59.30;;;;;;4917067;29;20085;-81
2022/06/27 01:11:49;;;;;;;1.75;1.33;;;21.90;59.40;;;;;;4916774;29;20051;-80
2022/06/27 01:14:16;;;;;;;1.38;1.27;;;21.90;59.30;;;;;;4885863;29;20418;-80
2022/06/27 01:16:42;;;;;;;1.35;1.20;;;21.90;59.40;;;;;;4917000;29;20032;-80
2022/06/27 01:19:13;;;;;;;1.70;1.27;;;21.90;59.40;;;;;;4885489;29;20066;-81
2022/06/27 01:21:54;;;;;;;2.10;1.55;;;21.80;59.40;;;;;;4918051;29;20399;-82
2022/06/27 01:24:22;;;;;;;1.20;1.10;;;21.80;59.50;;;;;;4901399;29;20452;-80
2022/06/27 01:26:49;;;;;;;1.85;1.40;;;21.80;59.40;;;;;;4901143;29;20047;-79
2022/06/27 01:29:17;;;;;;;2.28;1.55;;;21.80;59.40;;;;;;4886673;29;20075;-80
2022/06/27 01:31:43;;;;;;;1.38;1.27;;;21.80;59.50;;;;;;4885837;29;20032;-82
2022/06/27 01:34:12;;;;;;;2.88;1.60;;;21.80;59.50;;;;;;4917265;29;20040;-79
2022/06/27 01:36:43;;;;;;;1.95;1.40;;;21.80;59.50;;;;;;4886644;29;20088;-80
2022/06/27 01:39:23;;;;;;;1.77;1.48;;;21.80;59.50;;;;;;4901849;29;20056;-80
2022/06/27 01:41:54;;;;;;;1.60;1.50;;;21.80;59.60;;;;;;4885849;29;20426;-81
2022/06/27 01:44:24;;;;;;;1.20;1.10;;;21.70;59.50;;;;;;4901062;29;20130;-80
2022/06/27 01:46:59;;;;;;;1.90;1.40;;;21.70;59.50;;;;;;4885469;29;20020;-81
2022/06/27 01:49:25;;;;;;;1.92;1.45;;;21.70;59.50;;;;;;4916934;29;20060;-81
2022/06/27 01:51:51;;;;;;;2.78;1.50;;;21.70;59.50;;;;;;4900717;29;20047;-80
2022/06/27 01:54:19;;;;;;;1.40;1.30;;;21.70;59.60;;;;;;4885495;29;20039;-80
2022/06/27 01:56:46;;;;;;;2.10;1.55;;;21.70;59.60;;;;;;4885091;29;20025;-80
2022/06/27 01:59:15;;;;;;;1.63;1.30;;;21.70;59.60;;;;;;4900341;29;20087;-81
2022/06/27 02:01:42;;;;;;;1.45;1.23;;;21.60;59.60;;;;;;4900956;29;20028;-80
2022/06/27 02:04:10;;;;;;;1.77;1.40;;;21.70;59.70;;;;;;4869745;29;20032;-81
2022/06/27 02:06:37;;;;;;;1.92;1.40;;;21.70;59.70;;;;;;4900701;29;20020;-80
2022/06/27 02:09:10;;;;;;;2.25;1.58;;;21.60;59.60;;;;;;4870707;29;20456;-80
2022/06/27 02:11:37;;;;;;;1.75;1.35;;;21.60;59.70;;;;;;4900464;29;20032;-81
2022/06/27 02:14:03;;;;;;;2.42;1.40;;;21.60;59.60;;;;;;4869914;29;20115;-80
2022/06/27 02:16:29;;;;;;;1.88;1.40;;;21.60;59.70;;;;;;4916271;29;20064;-80
2022/06/27 02:18:55;;;;;;;1.30;1.20;;;21.60;59.70;;;;;;4900951;29;20056;-80
2022/06/27 02:21:24;;;;;;;1.75;1.40;;;21.60;59.70;;;;;;4916133;29;20378;-81
2022/06/27 02:23:51;;;;;;;2.25;1.40;;;21.60;59.70;;;;;;4916270;29;20058;-81
2022/06/27 02:26:22;;;;;;;1.48;1.35;;;21.60;59.70;;;;;;4915937;29;20047;-80
2022/06/27 02:28:53;;;;;;;1.40;1.10;;;21.60;59.70;;;;;;4885960;29;20024;-80
2022/06/27 02:31:19;;;;;;;1.65;1.35;;;21.60;59.70;;;;;;4885219;29;20367;-80
2022/06/27 02:33:46;;;;;;;2.30;1.40;;;21.60;59.70;;;;;;4900474;29;20044;-80
2022/06/27 02:36:16;;;;;;;2.15;1.40;;;21.50;59.70;;;;;;4869555;29;20025;-80
2022/06/27 02:38:44;;;;;;;1.83;1.30;;;21.50;59.70;;;;;;4901205;29;20059;-80
2022/06/27 02:41:15;;;;;;;1.38;1.20;;;21.50;59.70;;;;;;4913165;29;20375;-81
2022/06/27 02:43:43;;;;;;;1.42;1.33;;;21.50;59.70;;;;;;4897381;29;20127;-80
2022/06/27 02:46:09;;;;;;;1.80;1.40;;;21.50;59.80;;;;;;4900107;29;20020;-79
2022/06/27 02:48:36;;;;;;;1.67;1.50;;;21.50;59.70;;;;;;4869612;29;20043;-80
2022/06/27 02:51:07;;;;;;;2.08;1.40;;;21.50;59.80;;;;;;4915614;29;20055;-80
2022/06/27 02:53:49;;;;;;;1.42;1.33;;;21.40;59.80;;;;;;4900614;29;20036;-81
2022/06/27 02:56:41;;;;;;;1.80;1.48;;;21.40;59.80;;;;;;4915916;29;20068;-80
2022/06/27 02:59:16;;;;;;;2.30;1.48;;;21.40;59.80;;;;;;4885411;29;20024;-80
2022/06/27 03:01:43;;;;;;;1.92;1.48;;;21.40;59.90;;;;;;4899875;29;20024;-80
2022/06/27 03:04:09;;;;;;;1.95;1.50;;;21.40;59.90;;;;;;4900431;29;20419;-81
2022/06/27 03:06:37;;;;;;;1.70;1.48;;;21.40;59.90;;;;;;4915687;29;20032;-80
2022/06/27 03:09:03;;;;;;;1.85;1.65;;;21.40;59.90;;;;;;4915602;29;20088;-80
2022/06/27 03:11:28;;;;;;;1.60;1.40;;;21.40;59.90;;;;;;4884785;29;20040;-80
2022/06/27 03:13:54;;;;;;;1.65;1.40;;;21.30;59.90;;;;;;4899931;29;20131;-80
2022/06/27 03:16:22;;;;;;;1.70;1.50;;;21.30;59.90;;;;;;4869101;29;20036;-80
2022/06/27 03:18:51;;;;;;;2.03;1.40;;;21.40;60.00;;;;;;4912674;29;20052;-80
2022/06/27 03:21:41;;;;;;;1.88;1.50;;;21.40;60.00;;;;;;4897165;29;20398;-80
2022/06/27 03:24:08;;;;;;;1.60;1.35;;;21.30;59.90;;;;;;4897465;29;20024;-80
2022/06/27 03:26:34;;;;;;;4.22;1.40;;;21.30;60.00;;;;;;4881923;29;20061;-80
2022/06/27 03:29:03;;;;;;;1.85;1.50;;;21.30;60.00;;;;;;4896709;29;20060;-81
2022/06/27 03:31:29;;;;;;;2.38;1.63;;;21.30;60.00;;;;;;4881365;29;20025;-80
2022/06/27 03:33:55;;;;;;;1.55;1.40;;;21.30;60.10;;;;;;4896840;29;20391;-81
2022/06/27 03:36:31;;;;;;;2.08;1.63;;;21.30;60.00;;;;;;4896161;29;20517;-80
2022/06/27 03:38:58;;;;;;;2.47;1.73;;;21.30;60.10;;;;;;4898565;29;20065;-80
2022/06/27 03:41:25;;;;;;;2.67;1.70;;;21.30;60.10;;;;;;4899878;29;20034;-81
2022/06/27 03:43:50;;;;;;;2.33;1.65;;;21.20;60.10;;;;;;4868934;29;20044;-80
2022/06/27 03:46:17;;;;;;;1.67;1.52;;;21.30;60.10;;;;;;4916608;29;20092;-80
2022/06/27 03:51:42;;;;;;;1.98;1.58;;;21.20;60.10;;;;;;4915785;29;20044;-81
2022/06/27 03:54:08;;;;;;;1.50;1.40;;;21.20;60.10;;;;;;4915255;29;20512;-81
2022/06/27 03:56:34;;;;;;;2.35;1.73;;;21.20;60.10;;;;;;4915583;29;20062;-81
2022/06/27 03:59:00;;;;;;;2.85;1.73;;;21.20;60.20;;;;;;4915107;29;20032;-80
2022/06/27 04:01:26;;;;;;;2.15;1.65;;;21.20;60.20;;;;;;4899926;29;20037;-81
2022/06/27 04:03:52;;;;;;;2.75;1.65;;;21.20;60.20;;;;;;4899763;29;20437;-81
2022/06/27 04:06:19;;;;;;;1.52;1.42;;;21.20;60.30;;;;;;4915412;29;20025;-79
2022/06/27 04:08:45;;;;;;;2.53;1.58;;;21.20;60.30;;;;;;4900647;29;20489;-80
2022/06/27 04:11:11;;;;;;;1.50;1.40;;;21.20;60.30;;;;;;4915623;29;20068;-80
2022/06/27 04:13:40;;;;;;;1.65;1.40;;;21.20;60.30;;;;;;4916084;29;20041;-80
2022/06/27 04:16:25;;;;;;;1.98;1.58;;;21.20;60.40;;;;;;4882106;29;20068;-80
2022/06/27 04:19:09;;;;;;;1.58;1.42;;;21.20;60.30;;;;;;4918490;29;20095;-81
2022/06/27 04:22:03;;;;;;;3.25;1.60;;;21.10;60.30;;;;;;4902871;29;20059;-80
2022/06/27 04:24:48;;;;;;;1.65;1.52;;;21.10;60.30;;;;;;4918669;29;20099;-80
2022/06/27 04:27:20;;;;;;;2.22;1.70;;;21.10;60.30;;;;;;4903145;29;20047;-80
2022/06/27 04:29:49;;;;;;;1.42;1.33;;;21.10;60.50;;;;;;4903519;29;20042;-82
2022/06/27 04:32:17;;;;;;;1.85;1.50;;;21.10;60.50;;;;;;4902206;29;20378;-79
2022/06/27 04:34:43;;;;;;;1.77;1.58;;;21.10;60.50;;;;;;4902585;29;20036;-80
2022/06/27 04:37:11;;;;;;;3.20;1.48;;;21.10;60.50;;;;;;4918904;29;20052;-81
2022/06/27 04:39:54;;;;;;;2.30;1.80;;;21.10;60.60;;;;;;4902243;29;20092;-81
2022/06/27 04:42:28;;;;;;;1.52;1.42;;;21.00;60.50;;;;;;4917856;29;20039;-80
2022/06/27 04:44:54;;;;;;;1.90;1.70;;;21.10;60.50;;;;;;4902158;29;20040;-79
2022/06/27 04:47:20;;;;;;;1.65;1.48;;;21.00;60.50;;;;;;4870807;29;20039;-79
2022/06/27 04:50:15;;;;;;;1.60;1.50;;;21.00;60.60;;;;;;4915475;29;20044;-81
2022/06/27 04:52:42;;;;;;;1.88;1.67;;;21.10;60.60;;;;;;4902520;29;20055;-80
2022/06/27 04:55:10;;;;;;;2.03;1.60;;;21.10;60.70;;;;;;4917488;29;20385;-80
2022/06/27 04:57:37;;;;;;;3.00;1.80;;;21.00;60.70;;;;;;4901622;29;20123;-80
2022/06/27 05:00:07;;;;;;;1.88;1.58;;;21.00;60.70;;;;;;4885940;29;20044;-80
2022/06/27 05:02:53;;;;;;;1.60;1.50;;;21.00;60.70;;;;;;4904310;29;20051;-80
2022/06/27 05:05:19;;;;;;;2.17;1.58;;;21.00;60.60;;;;;;4901849;29;20036;-82
2022/06/27 05:07:45;;;;;;;2.78;1.73;;;21.00;60.70;;;;;;4917522;29;20040;-80
2022/06/27 05:10:11;;;;;;;1.90;1.70;;;21.00;60.70;;;;;;4917816;29;20063;-81
2022/06/27 05:12:37;;;;;;;1.95;1.65;;;21.00;60.80;;;;;;4917438;29;20130;-80
2022/06/27 05:15:04;;;;;;;2.78;1.80;;;21.00;60.70;;;;;;4901670;29;20124;-81
2022/06/27 05:17:29;;;;;;;1.70;1.60;;;21.00;60.70;;;;;;4885825;29;20029;-80
2022/06/27 05:19:55;;;;;;;2.25;1.80;;;21.10;60.80;;;;;;4901327;29;20139;-79
2022/06/27 05:22:21;;;;;;;3.22;2.08;;;21.10;60.80;;;;;;4885642;29;20028;-79
2022/06/27 05:24:50;;;;;;;2.03;1.52;;;21.10;60.80;;;;;;4916526;29;20126;-80
2022/06/27 05:27:17;;;;;;;1.80;1.60;;;21.10;60.80;;;;;;4900985;29;20032;-80
2022/06/27 05:29:44;;;;;;;1.73;1.55;;;21.10;60.80;;;;;;4886274;29;20103;-81
2022/06/27 05:32:10;;;;;;;2.22;1.70;;;21.10;60.80;;;;;;4916648;29;20516;-78
2022/06/27 05:34:37;;;;;;;1.95;1.77;;;21.10;60.80;;;;;;4913466;29;20041;-78
2022/06/27 05:37:05;;;;;;;1.50;1.40;;;21.10;60.80;;;;;;4893068;29;20040;-79
2022/06/27 05:39:33;;;;;;;2.00;1.55;;;21.10;60.80;;;;;;4885641;29;20032;-79
2022/06/27 05:41:59;;;;;;;2.22;1.70;;;21.10;60.90;;;;;;4916093;29;20040;-78
2022/06/27 05:44:27;;;;;;;3.13;1.83;;;21.10;60.80;;;;;;4916192;29;20034;-80
2022/06/27 05:46:56;;;;;;;1.83;1.63;;;21.10;60.90;;;;;;4901375;29;20043;-79
2022/06/27 05:49:33;;;;;;;2.13;1.70;;;21.10;60.90;;;;;;4902259;29;20143;-81
2022/06/27 05:52:00;;;;;;;2.08;1.70;;;21.10;60.90;;;;;;4870567;29;20036;-79
2022/06/27 05:54:27;;;;;;;2.00;1.80;;;21.10;60.90;;;;;;4901494;29;20039;-79
2022/06/27 05:56:53;;;;;;;2.83;1.95;;;21.10;60.90;;;;;;4900682;29;20515;-79
2022/06/27 05:59:19;;;;;;;2.05;1.85;;;21.10;60.90;;;;;;4869383;29;20042;-78
2022/06/27 06:01:47;;;;;;;2.22;1.80;;;21.10;60.90;;;;;;4899981;29;20434;-79
2022/06/27 06:04:14;;;;;;;1.70;1.60;;;21.10;60.90;;;;;;4885206;29;20028;-80
2022/06/27 06:06:43;;;;;;;2.45;1.90;;;21.20;61.00;;;;;;4900577;29;20036;-79
2022/06/27 06:09:10;;;;;;;2.30;1.75;;;21.20;61.00;;;;;;4885049;29;20025;-79
2022/06/27 06:11:36;;;;;;;2.50;1.85;;;21.20;61.00;;;;;;4900407;29;20084;-80
2022/06/27 06:14:03;;;;;;;2.33;1.95;;;21.20;61.00;;;;;;4916150;29;20032;-78
2022/06/27 06:16:29;;;;;;;1.95;1.80;;;21.20;61.10;;;;;;4885696;29;20067;-78
2022/06/27 06:18:56;;;;;;;2.58;1.70;;;21.20;61.10;;;;;;4900834;29;20076;-79
2022/06/27 06:21:23;;;;;;;2.28;1.88;;;21.20;61.10;;;;;;4884743;29;20036;-78
2022/06/27 06:23:53;;;;;;;2.15;1.90;;;21.20;61.10;;;;;;4901012;29;20488;-78
2022/06/27 06:26:20;;;;;;;2.55;1.73;;;21.20;61.10;;;;;;4900664;29;20466;-79
2022/06/27 06:28:50;;;;;;;2.05;1.80;;;21.20;61.10;;;;;;4916464;29;20028;-78
2022/06/27 06:31:23;;;;;;;2.55;2.00;;;21.30;61.10;;;;;;4900410;29;20032;-79
2022/06/27 06:33:56;;;;;;;2.33;1.83;;;21.30;61.10;;;;;;4900289;29;20048;-80
2022/06/27 06:36:23;;;;;;;2.67;1.80;;;21.30;61.10;;;;;;4915787;29;20584;-80
2022/06/27 06:38:51;;;;;;;2.30;1.70;;;21.30;61.10;;;;;;4869360;29;20115;-80
2022/06/27 06:41:18;;;;;;;2.83;1.90;;;21.30;61.10;;;;;;4900229;29;20046;-81
2022/06/27 06:43:45;;;;;;;1.90;1.67;;;21.30;61.10;;;;;;4899579;29;20036;-80
2022/06/27 06:46:24;;;;;;;2.38;1.98;;;21.30;61.10;;;;;;4900064;29;20429;-80
2022/06/27 06:49:06;;;;;;;2.08;1.73;;;21.30;61.10;;;;;;4887641;29;20093;-80
2022/06/27 06:51:34;;;;;;;2.20;1.85;;;21.30;61.10;;;;;;4900549;29;20063;-81
2022/06/27 06:54:07;;;;;;;3.55;2.20;;;21.30;61.10;;;;;;4900079;29;20036;-81
2022/06/27 06:56:34;;;;;;;2.13;1.75;;;21.30;61.20;;;;;;4915596;29;20032;-80
2022/06/27 06:59:01;;;;;;;2.45;2.00;;;21.40;61.20;;;;;;4917159;29;20111;-80
2022/06/27 07:01:28;;;;;;;2.20;1.80;;;21.40;61.20;;;;;;4884711;29;20024;-80
2022/06/27 07:03:55;;;;;;;2.00;1.75;;;21.40;61.30;;;;;;4884469;29;20400;-78
2022/06/27 07:06:24;;;;;;;2.20;1.88;;;21.40;61.30;;;;;;4916764;29;20109;-79
2022/06/27 07:08:54;;;;;;;1.90;1.70;;;21.40;61.30;;;;;;4917242;29;20106;-81
2022/06/27 07:11:29;;;;;;;2.95;1.98;;;21.40;62.00;;;;;;4916982;29;20051;-80
2022/06/27 07:13:58;;;;;;;3.25;2.28;;;21.40;61.40;;;;;;4887131;29;20052;-80
2022/06/27 07:16:25;;;;;;;3.85;2.22;;;21.40;61.40;;;;;;4903818;29;20060;-80
2022/06/27 07:18:56;;;;;;;2.35;1.80;;;21.50;61.40;;;;;;4903656;29;20056;-80
2022/06/27 07:21:26;;;;;;;2.30;1.73;;;21.50;61.40;;;;;;4888616;29;20052;-81
2022/06/27 07:23:53;;;;;;;2.78;2.13;;;21.50;61.40;;;;;;4888243;29;20070;-80
2022/06/27 07:26:19;;;;;;;3.35;2.30;;;21.50;61.40;;;;;;4872848;29;20061;-80
2022/06/27 07:28:46;;;;;;;2.25;2.00;;;21.50;61.40;;;;;;4888012;29;20036;-81
2022/06/27 07:31:13;;;;;;;3.08;2.35;;;21.50;61.40;;;;;;4904015;29;20028;-82
2022/06/27 07:33:45;;;;;;;2.75;2.30;;;21.50;61.40;;;;;;4872244;29;20529;-81
2022/06/27 07:36:14;;;;;;;2.90;2.30;;;21.50;61.40;;;;;;4903528;29;20042;-81
2022/06/27 07:38:41;;;;;;;2.40;1.90;;;21.50;61.30;;;;;;4920849;29;20032;-84
2022/06/27 07:41:13;;;;;;;3.63;2.45;;;21.60;61.40;;;;;;4887758;29;20032;-82
2022/06/27 07:43:40;;;;;;;2.70;2.10;;;21.60;61.40;;;;;;4920859;29;20059;-82
2022/06/27 07:46:07;;;;;;;2.60;2.10;;;21.60;61.40;;;;;;4887907;29;20548;-81
2022/06/27 07:48:33;;;;;;;3.15;2.28;;;21.60;61.40;;;;;;4903860;29;20043;-83
2022/06/27 07:51:00;;;;;;;2.63;2.08;;;21.60;61.40;;;;;;4903284;29;20036;-82
2022/06/27 07:53:27;;;;;;;2.17;1.90;;;21.60;61.40;;;;;;4918967;29;20043;-81
2022/06/27 07:56:00;;;;;;;2.78;2.15;;;21.60;61.30;;;;;;4887449;29;20389;-81
2022/06/27 07:58:38;;;;;;;3.63;2.47;;;21.60;61.40;;;;;;4919901;29;20489;-82
2022/06/27 08:01:09;;;;;;;3.00;2.10;;;21.60;61.40;;;;;;4887922;29;20127;-81
2022/06/27 08:03:42;;;;;;;2.90;2.05;;;21.70;61.40;;;;;;4887637;29;20048;-81
2022/06/27 08:06:18;;;;;;;3.40;2.13;;;21.70;61.40;;;;;;4889054;29;20036;-81
2022/06/27 08:08:57;;;;;;;2.60;1.92;;;21.70;61.30;;;;;;4887581;29;20509;-82
2022/06/27 08:11:28;;;;;;;2.40;2.10;;;21.70;61.40;;;;;;4887526;29;20084;-82
2022/06/27 08:13:56;;;;;;;2.88;2.05;;;21.70;61.30;;;;;;4919602;29;20048;-80
2022/06/27 08:16:24;;;;;;;2.50;1.90;;;21.70;61.40;;;;;;4903188;29;20040;-82
2022/06/27 08:18:52;;;;;;;2.53;2.20;;;21.70;61.30;;;;;;4886950;29;20135;-82
2022/06/27 08:21:25;;;;;;;2.35;2.10;;;21.70;61.30;;;;;;4903006;29;20123;-82
2022/06/27 08:23:53;;;;;;;2.55;2.13;;;21.80;61.50;;;;;;4888573;29;20131;-82
2022/06/27 08:26:21;;;;;;;2.22;1.92;;;21.80;61.30;;;;;;4886396;29;20028;-83
2022/06/27 08:28:47;;;;;;;2.38;2.05;;;21.80;61.30;;;;;;4887149;29;20087;-82
2022/06/27 08:31:14;;;;;;;2.17;1.90;;;21.80;61.20;;;;;;4871497;29;20036;-82
2022/06/27 08:33:43;;;;;;;2.17;1.80;;;21.80;61.20;;;;;;4918368;29;20060;-82
2022/06/27 08:36:10;;;;;;;2.25;1.80;;;21.90;61.20;;;;;;4902431;29;20422;-82
2022/06/27 08:38:50;;;;;;;3.15;2.10;;;21.90;61.20;;;;;;4918952;29;20024;-82
2022/06/27 08:41:18;;;;;;;3.40;2.13;;;21.90;61.10;;;;;;4919804;29;20036;-82
2022/06/27 08:43:46;;;;;;;2.88;1.98;;;21.90;61.10;;;;;;4901972;29;20036;-82
2022/06/27 08:46:15;;;;;;;2.90;2.08;;;22.00;61.10;;;;;;4886789;29;20055;-82
2022/06/27 08:48:42;;;;;;;2.35;1.90;;;22.00;61.10;;;;;;4918916;29;20469;-82
2022/06/27 08:51:09;;;;;;;2.30;1.70;;;22.00;61.00;;;;;;4919787;29;20052;-83
2022/06/27 08:53:38;;;;;;;2.05;1.85;;;22.00;61.00;;;;;;4871818;29;20036;-82
2022/06/27 08:56:12;;;;;;;1.85;1.65;;;22.10;61.00;;;;;;4919059;29;20040;-84
2022/06/27 08:58:40;;;;;;;2.47;1.83;;;22.10;61.00;;;;;;4919074;29;20469;-82
2022/06/27 09:01:07;;;;;;;2.40;1.90;;;22.10;60.90;;;;;;4901811;29;20120;-83
2022/06/27 09:03:34;;;;;;;2.78;1.98;;;22.20;60.90;;;;;;4918597;29;20031;-84
2022/06/27 09:06:05;;;;;;;2.17;1.75;;;22.20;60.90;;;;;;4902360;29;20024;-83
2022/06/27 09:08:36;;;;;;;2.60;1.90;;;22.20;60.90;;;;;;4919176;29;20036;-82
2022/06/27 09:11:03;;;;;;;2.97;1.90;;;22.30;60.90;;;;;;4886259;29;20055;-83
2022/06/27 09:13:30;;;;;;;2.42;1.88;;;22.30;60.80;;;;;;4901922;29;20032;-82
2022/06/27 09:15:57;;;;;;;2.38;1.83;;;22.30;60.70;;;;;;4901898;29;20047;-84
2022/06/27 09:18:37;;;;;;;2.53;1.95;;;22.40;60.70;;;;;;4901544;29;20052;-85
2022/06/27 09:21:15;;;;;;;1.98;1.55;;;22.40;60.80;;;;;;4902804;29;20123;-85
2022/06/27 09:24:01;;;;;;;1.88;1.67;;;22.40;60.70;;;;;;4902437;29;20063;-86
2022/06/27 09:26:30;;;;;;;1.73;1.60;;;22.50;60.60;;;;;;4902409;29;20056;-84
2022/06/27 09:28:59;;;;;;;2.10;1.70;;;22.50;60.60;;;;;;4902226;29;20039;-86
2022/06/27 09:31:30;;;;;;;2.42;1.70;;;22.50;60.60;;;;;;4918408;29;20055;-86
2022/06/27 09:34:24;;;;;;;2.22;1.88;;;22.60;60.50;;;;;;4902447;29;20075;-86
2022/06/27 09:36:55;;;;;;;2.53;1.65;;;22.60;60.50;;;;;;4902605;29;20040;-86
2022/06/27 09:39:33;;;;;;;2.35;1.85;;;22.60;60.40;;;;;;4902443;29;20047;-83
2022/06/27 09:42:09;;;;;;;2.42;1.85;;;22.70;60.50;;;;;;4901995;29;20480;-86
2022/06/27 09:44:40;;;;;;;1.88;1.60;;;22.70;60.50;;;;;;4917901;29;20039;-85
2022/06/27 09:47:10;;;;;;;2.10;1.70;;;22.80;61.00;;;;;;4917799;29;20068;-86
2022/06/27 09:49:39;;;;;;;2.10;1.75;;;22.80;60.30;;;;;;4902472;29;20068;-85
2022/06/27 09:52:10;;;;;;;1.83;1.55;;;22.80;60.20;;;;;;4902299;29;20028;-86
2022/06/27 09:54:37;;;;;;;1.73;1.63;;;22.90;60.20;;;;;;4902429;29;20124;-86
2022/06/27 09:57:05;;;;;;;1.95;1.52;;;22.90;60.20;;;;;;4886547;29;20028;-85
2022/06/27 09:59:31;;;;;;;1.80;1.67;;;22.90;60.10;;;;;;4886375;29;20036;-86
2022/06/27 10:02:00;;;;;;;1.70;1.45;;;23.00;60.20;;;;;;4917205;29;20055;-86
2022/06/27 10:04:35;;;;;;;2.30;1.80;;;23.00;60.10;;;;;;4917812;29;20067;-86
2022/06/27 10:07:03;;;;;;;2.47;1.77;;;23.00;60.10;;;;;;4918532;29;20060;-86
2022/06/27 10:09:32;;;;;;;1.80;1.60;;;23.10;60.10;;;;;;4917263;29;20037;-86
2022/06/27 10:12:24;;;;;;;2.25;1.80;;;23.10;60.10;;;;;;4916947;29;20036;-86
2022/06/27 10:15:14;;;;;;;2.45;1.90;;;23.10;60.10;;;;;;4902254;29;20087;-86
2022/06/27 10:17:47;;;;;;;1.55;1.45;;;23.20;60.20;;;;;;4917230;29;20063;-87
2022/06/27 10:20:34;;;;;;;1.73;1.50;;;23.20;60.00;;;;;;4918089;29;20036;-86
2022/06/27 10:23:09;;;;;;;2.63;1.88;;;23.20;60.00;;;;;;4885495;29;20032;-86
2022/06/27 10:25:37;;;;;;;2.13;1.73;;;23.30;60.00;;;;;;4917628;29;20036;-86
2022/06/27 10:28:12;;;;;;;2.13;1.63;;;23.30;60.00;;;;;;4900910;29;20025;-85
2022/06/27 10:30:45;;;;;;;2.22;1.50;;;23.30;59.90;;;;;;4901911;29;20088;-86
2022/06/27 10:33:26;;;;;;;1.73;1.58;;;23.30;59.90;;;;;;4918420;29;20039;-86
2022/06/27 10:35:55;;;;;;;2.15;1.80;;;23.40;59.90;;;;;;4901377;29;20116;-86
2022/06/27 10:38:21;;;;;;;2.72;1.70;;;23.40;59.80;;;;;;4901350;29;20028;-85
2022/06/27 10:40:47;;;;;;;2.78;2.00;;;23.50;59.80;;;;;;4917361;29;20039;-84
2022/06/27 10:43:36;;;;;;;1.90;1.52;;;23.50;59.70;;;;;;4886133;29;20346;-85
2022/06/27 10:46:11;;;;;;;2.78;1.70;;;23.50;59.80;;;;;;4916601;29;20024;-86
2022/06/27 10:48:40;;;;;;;1.50;1.35;;;23.50;59.60;;;;;;4901157;29;20421;-85
2022/06/27 10:51:18;;;;;;;2.05;1.42;;;23.60;59.60;;;;;;4917484;29;20062;-86
2022/06/27 10:53:45;;;;;;;1.67;1.50;;;23.60;59.60;;;;;;4900919;29;20042;-86
2022/06/27 10:56:31;;;;;;;1.52;1.42;;;23.60;59.40;;;;;;4870419;29;20032;-87
2022/06/27 10:59:04;;;;;;;1.73;1.60;;;23.70;59.60;;;;;;4901308;29;20028;-88
2022/06/27 11:01:34;;;;;;;1.73;1.58;;;23.70;59.40;;;;;;4901349;29;20050;-88
2022/06/27 11:04:03;;;;;;;1.90;1.70;;;23.80;59.30;;;;;;4900996;29;20100;-89
2022/06/27 11:06:32;;;;;;;2.33;1.60;;;23.80;59.30;;;;;;4885130;29;20020;-91
2022/06/27 11:08:58;;;;;;;2.03;1.65;;;23.90;59.30;;;;;;4901031;29;20024;-89
2022/06/27 11:11:36;;;;;;;2.28;1.63;;;23.90;59.20;;;;;;4916436;29;20028;-90
2022/06/27 11:14:16;;;;;;;2.55;1.70;;;24.00;59.20;;;;;;4916788;29;20522;-89
2022/06/27 11:16:42;;;;;;;2.38;1.83;;;24.00;59.10;;;;;;4901853;29;20036;-84
2022/06/27 11:20:04;;;;;;;1.63;1.50;;;24.00;59.00;;;;;;4917761;29;20068;-89
2022/06/27 11:21:54;;;;;;;1.85;1.65;;;24.00;58.90;;;;;;4902830;29;20048;-84
2022/06/27 11:24:20;;;;;;;2.05;1.60;;;24.10;58.90;;;;;;4885086;29;20055;-85
2022/06/27 11:26:48;;;;;;;2.17;1.60;;;24.20;58.90;;;;;;4917721;29;20483;-88
2022/06/27 11:32:05;;;;;;;2.28;1.70;;;24.20;58.80;;;;;;4916905;29;20047;-88
2022/06/27 11:34:34;;;;;;;1.95;1.40;;;24.30;58.70;;;;;;4916580;29;20327;-90
2022/06/27 11:37:27;;;;;;;2.47;1.50;;;24.30;58.70;;;;;;4885330;29;20426;-88
2022/06/27 11:40:06;;;;;;;1.85;1.42;;;24.30;58.60;;;;;;4882045;29;20175;-88
2022/06/27 11:42:34;;;;;;;1.75;1.40;;;24.40;58.70;;;;;;4900934;29;20036;-87
2022/06/27 11:45:14;;;;;;;2.13;1.40;;;24.40;58.60;;;;;;4900964;29;20028;-88
2022/06/27 11:47:45;;;;;;;1.15;1.05;;;24.40;58.60;;;;;;4900326;29;20036;-87
2022/06/27 11:50:16;;;;;;;2.05;1.50;;;24.50;58.60;;;;;;4885708;29;20032;-88
2022/06/27 11:52:43;;;;;;;1.85;1.38;;;24.50;58.50;;;;;;4900345;29;20115;-88
2022/06/27 11:55:17;;;;;;;1.85;1.40;;;24.50;58.50;;;;;;4901572;29;20114;-89
2022/06/27 11:57:48;;;;;;;2.13;1.30;;;24.60;58.50;;;;;;4916149;29;20060;-87
2022/06/27 12:00:22;;;;;;;1.58;1.45;;;24.60;58.40;;;;;;4917839;29;20073;-88
2022/06/27 12:03:04;;;;;;;2.00;1.50;;;24.60;58.40;;;;;;4904978;29;20031;-89
2022/06/27 12:05:30;;;;;;;1.35;1.25;;;24.60;58.30;;;;;;4926058;29;20059;-88
2022/06/27 12:08:02;;;;;;;2.40;1.70;;;24.70;58.30;;;;;;4909940;29;20110;-89
2022/06/27 12:10:40;;;;;;;2.03;1.30;;;24.70;58.30;;;;;;4919823;29;20083;-85
2022/06/27 12:13:11;;;;;;;1.90;1.30;;;24.70;58.30;;;;;;4903804;29;20092;-84
2022/06/27 12:15:39;;;;;;;1.92;1.58;;;24.80;58.20;;;;;;4903152;29;20118;-85
2022/06/27 12:18:06;;;;;;;1.98;1.33;;;24.80;58.20;;;;;;4902591;29;20116;-85
2022/06/27 12:20:33;;;;;;;2.42;1.60;;;24.80;58.10;;;;;;4903163;29;20084;-85
2022/06/27 12:23:00;;;;;;;1.88;1.52;;;24.80;58.10;;;;;;4887673;29;20032;-85
2022/06/27 12:25:27;;;;;;;2.00;1.30;;;24.80;58.10;;;;;;4887537;29;20037;-85
2022/06/27 12:27:53;;;;;;;1.58;1.27;;;24.80;58.00;;;;;;4903358;29;20016;-85
2022/06/27 12:30:19;;;;;;;1.80;1.40;;;24.80;58.00;;;;;;4919195;29;20476;-85
2022/06/27 12:32:45;;;;;;;1.30;1.20;;;24.90;58.00;;;;;;4887590;29;20055;-84
2022/06/27 12:35:12;;;;;;;2.30;1.58;;;24.90;57.90;;;;;;4902759;29;20056;-84
2022/06/27 12:37:38;;;;;;;2.00;1.55;;;24.90;57.90;;;;;;4918905;29;20036;-84
2022/06/27 12:40:13;;;;;;;2.40;1.67;;;24.90;57.90;;;;;;4902835;29;20513;-84
2022/06/27 12:42:38;;;;;;;1.92;1.40;;;25.00;57.90;;;;;;4903829;29;20040;-85
2022/06/27 12:45:04;;;;;;;1.20;1.08;;;25.00;57.80;;;;;;4887237;29;20147;-84
2022/06/27 12:47:31;;;;;;;2.85;1.50;;;25.00;57.80;;;;;;4902276;29;20036;-85
2022/06/27 12:49:56;;;;;;;2.15;1.60;;;25.10;57.80;;;;;;4887459;29;20138;-86
2022/06/27 12:52:22;;;;;;;2.47;1.55;;;25.10;57.70;;;;;;4902760;29;20040;-84
2022/06/27 12:54:48;;;;;;;2.05;1.50;;;25.10;57.70;;;;;;4887061;29;20492;-85
2022/06/27 12:57:14;;;;;;;1.80;1.40;;;25.10;57.70;;;;;;4871467;29;20084;-84
2022/06/27 12:59:41;;;;;;;2.30;1.40;;;25.10;57.60;;;;;;4902368;29;20059;-84
2022/06/27 13:02:07;;;;;;;3.45;1.60;;;25.20;57.60;;;;;;4902547;29;20031;-84
2022/06/27 13:04:35;;;;;;;2.33;1.52;;;25.20;57.50;;;;;;4902587;29;20071;-86
2022/06/27 13:07:01;;;;;;;1.67;1.40;;;25.20;57.50;;;;;;4918224;29;20039;-85